sensor_id;sensor_type;location;lat;lon;timestamp;P1;P2;P0
53658;PMS5003;41524;35.624;139.698;2023-04-24T00:00:16;11.00;10.00;
53658;PMS5003;41524;35.624;139.698;2023-04-24T00:05:14;9.00;9.00;
53658;PMS5003;41524;35.624;139.698;2023-04-24T00:10:10;10.00;9.00;
53658;PMS5003;41524;35.624;139.698;2023-04-24T00:15:14;8.00;8.00;
53658;PMS5003;41524;35.624;139.698;2023-04-24T00:20:14;12.00;11.00;
53658;PMS5003;41524;35.624;139.698;2023-04-24T00:25:10;11.00;11.00;
53658;PMS5003;41524;35.624;139.698;2023-04-24T00:30:14;14.00;9.00;
53658;PMS5003;41524;35.624;139.698;2023-04-24T00:35:14;12.00;11.00;
53658;PMS5003;41524;35.624;139.698;2023-04-24T00:40:20;11.00;10.00;
53658;PMS5003;41524;35.624;139.698;2023-04-24T00:45:10;9.00;9.00;
53658;PMS5003;41524;35.624;139.698;2023-04-24T00:50:15;8.00;8.00;
53658;PMS5003;41524;35.624;139.698;2023-04-24T00:55:09;10.00;10.00;
53658;PMS5003;41524;35.624;139.698;2023-04-24T01:00:10;10.00;9.00;
53658;PMS5003;41524;35.624;139.698;2023-04-24T01:05:09;11.00;11.00;
53658;PMS5003;41524;35.624;139.698;2023-04-24T01:10:16;11.00;9.00;
53658;PMS5003;41524;35.624;139.698;2023-04-24T01:15:14;16.00;10.00;
53658;PMS5003;41524;35.624;139.698;2023-04-24T01:20:09;13.00;11.00;
53658;PMS5003;41524;35.624;139.698;2023-04-24T01:25:09;13.00;12.00;
53658;PMS5003;41524;35.624;139.698;2023-04-24T01:30:10;9.00;9.00;
53658;PMS5003;41524;35.624;139.698;2023-04-24T01:35:10;15.00;14.00;
53658;PMS5003;41524;35.624;139.698;2023-04-24T01:40:14;14.00;12.00;
53658;PMS5003;41524;35.624;139.698;2023-04-24T01:45:10;12.00;12.00;
53658;PMS5003;41524;35.624;139.698;2023-04-24T01:50:09;12.00;10.00;
53658;PMS5003;41524;35.624;139.698;2023-04-24T01:55:10;11.00;11.00;
53658;PMS5003;41524;35.624;139.698;2023-04-24T02:00:11;16.00;15.00;
53658;PMS5003;41524;35.624;139.698;2023-04-24T02:05:09;13.00;12.00;
53658;PMS5003;41524;35.624;139.698;2023-04-24T02:10:12;14.00;12.00;
53658;PMS5003;41524;35.624;139.698;2023-04-24T02:15:15;9.00;9.00;
53658;PMS5003;41524;35.624;139.698;2023-04-24T02:20:14;14.00;11.00;
53658;PMS5003;41524;35.624;139.698;2023-04-24T02:25:10;8.00;8.00;
53658;PMS5003;41524;35.624;139.698;2023-04-24T02:30:09;8.00;7.00;
53658;PMS5003;41524;35.624;139.698;2023-04-24T02:35:09;14.00;11.00;
53658;PMS5003;41524;35.624;139.698;2023-04-24T02:40:09;10.00;10.00;
53658;PMS5003;41524;35.624;139.698;2023-04-24T02:45:14;11.00;9.00;
53658;PMS5003;41524;35.624;139.698;2023-04-24T02:50:09;15.00;13.00;
53658;PMS5003;41524;35.624;139.698;2023-04-24T02:55:10;10.00;9.00;
53658;PMS5003;41524;35.624;139.698;2023-04-24T03:00:08;12.00;11.00;
53658;PMS5003;41524;35.624;139.698;2023-04-24T03:05:11;16.00;12.00;
53658;PMS5003;41524;35.624;139.698;2023-04-24T03:10:09;13.00;12.00;
53658;PMS5003;41524;35.624;139.698;2023-04-24T03:15:14;13.00;12.00;
53658;PMS5003;41524;35.624;139.698;2023-04-24T03:20:14;16.00;14.00;
53658;PMS5003;41524;35.624;139.698;2023-04-24T03:25:09;17.00;16.00;
53658;PMS5003;41524;35.624;139.698;2023-04-24T03:30:09;13.00;13.00;
53658;PMS5003;41524;35.624;139.698;2023-04-24T03:35:15;13.00;12.00;
53658;PMS5003;41524;35.624;139.698;2023-04-24T03:40:09;14.00;13.00;
53658;PMS5003;41524;35.624;139.698;2023-04-24T03:45:13;19.00;19.00;
53658;PMS5003;41524;35.624;139.698;2023-04-24T03:50:09;17.00;17.00;
53658;PMS5003;41524;35.624;139.698;2023-04-24T03:55:15;16.00;15.00;
53658;PMS5003;41524;35.624;139.698;2023-04-24T04:00:09;19.00;17.00;
53658;PMS5003;41524;35.624;139.698;2023-04-24T04:05:09;21.00;18.00;
53658;PMS5003;41524;35.624;139.698;2023-04-24T04:10:10;16.00;15.00;
53658;PMS5003;41524;35.624;139.698;2023-04-24T04:15:14;19.00;19.00;
53658;PMS5003;41524;35.624;139.698;2023-04-24T04:20:08;18.00;18.00;
53658;PMS5003;41524;35.624;139.698;2023-04-24T04:25:09;16.00;16.00;
53658;PMS5003;41524;35.624;139.698;2023-04-24T04:30:10;18.00;17.00;
53658;PMS5003;41524;35.624;139.698;2023-04-24T04:35:14;22.00;19.00;
53658;PMS5003;41524;35.624;139.698;2023-04-24T04:40:09;22.00;19.00;
53658;PMS5003;41524;35.624;139.698;2023-04-24T04:45:09;23.00;21.00;
53658;PMS5003;41524;35.624;139.698;2023-04-24T04:50:14;18.00;17.00;
53658;PMS5003;41524;35.624;139.698;2023-04-24T04:55:10;25.00;25.00;
53658;PMS5003;41524;35.624;139.698;2023-04-24T05:00:14;22.00;20.00;
53658;PMS5003;41524;35.624;139.698;2023-04-24T05:05:13;21.00;18.00;
53658;PMS5003;41524;35.624;139.698;2023-04-24T05:10:09;22.00;16.00;
53658;PMS5003;41524;35.624;139.698;2023-04-24T05:15:14;17.00;17.00;
53658;PMS5003;41524;35.624;139.698;2023-04-24T05:20:16;15.00;15.00;
53658;PMS5003;41524;35.624;139.698;2023-04-24T05:25:12;19.00;16.00;
53658;PMS5003;41524;35.624;139.698;2023-04-24T05:30:10;22.00;21.00;
53658;PMS5003;41524;35.624;139.698;2023-04-24T05:35:09;17.00;16.00;
53658;PMS5003;41524;35.624;139.698;2023-04-24T05:40:09;20.00;20.00;
53658;PMS5003;41524;35.624;139.698;2023-04-24T05:45:20;16.00;15.00;
53658;PMS5003;41524;35.624;139.698;2023-04-24T05:50:14;18.00;18.00;
53658;PMS5003;41524;35.624;139.698;2023-04-24T05:55:09;22.00;22.00;
53658;PMS5003;41524;35.624;139.698;2023-04-24T06:00:09;18.00;17.00;
53658;PMS5003;41524;35.624;139.698;2023-04-24T06:05:10;22.00;19.00;
53658;PMS5003;41524;35.624;139.698;2023-04-24T06:10:14;22.00;21.00;
53658;PMS5003;41524;35.624;139.698;2023-04-24T06:15:14;15.00;14.00;
53658;PMS5003;41524;35.624;139.698;2023-04-24T06:20:09;17.00;17.00;
53658;PMS5003;41524;35.624;139.698;2023-04-24T06:25:10;18.00;17.00;
53658;PMS5003;41524;35.624;139.698;2023-04-24T06:30:12;20.00;20.00;
53658;PMS5003;41524;35.624;139.698;2023-04-24T06:35:13;17.00;16.00;
53658;PMS5003;41524;35.624;139.698;2023-04-24T06:40:14;18.00;17.00;
53658;PMS5003;41524;35.624;139.698;2023-04-24T06:45:09;18.00;18.00;
53658;PMS5003;41524;35.624;139.698;2023-04-24T06:50:09;24.00;21.00;
53658;PMS5003;41524;35.624;139.698;2023-04-24T06:55:10;20.00;17.00;
53658;PMS5003;41524;35.624;139.698;2023-04-24T07:00:10;21.00;16.00;
53658;PMS5003;41524;35.624;139.698;2023-04-24T07:05:11;20.00;19.00;
53658;PMS5003;41524;35.624;139.698;2023-04-24T07:10:14;24.00;22.00;
53658;PMS5003;41524;35.624;139.698;2023-04-24T07:15:14;22.00;20.00;
53658;PMS5003;41524;35.624;139.698;2023-04-24T07:20:09;20.00;19.00;
53658;PMS5003;41524;35.624;139.698;2023-04-24T07:25:09;19.00;18.00;
53658;PMS5003;41524;35.624;139.698;2023-04-24T07:30:15;21.00;17.00;
53658;PMS5003;41524;35.624;139.698;2023-04-24T07:35:15;16.00;16.00;
53658;PMS5003;41524;35.624;139.698;2023-04-24T07:40:09;19.00;17.00;
53658;PMS5003;41524;35.624;139.698;2023-04-24T07:45:09;27.00;25.00;
53658;PMS5003;41524;35.624;139.698;2023-04-24T07:50:09;25.00;22.00;
53658;PMS5003;41524;35.624;139.698;2023-04-24T07:55:11;24.00;24.00;
53658;PMS5003;41524;35.624;139.698;2023-04-24T08:00:11;20.00;19.00;
53658;PMS5003;41524;35.624;139.698;2023-04-24T08:05:08;25.00;22.00;
53658;PMS5003;41524;35.624;139.698;2023-04-24T08:10:09;20.00;19.00;
53658;PMS5003;41524;35.624;139.698;2023-04-24T08:15:09;12.00;11.00;
53658;PMS5003;41524;35.624;139.698;2023-04-24T08:20:09;15.00;13.00;
53658;PMS5003;41524;35.624;139.698;2023-04-24T08:25:09;12.00;12.00;
53658;PMS5003;41524;35.624;139.698;2023-04-24T08:30:10;14.00;13.00;
53658;PMS5003;41524;35.624;139.698;2023-04-24T08:35:09;16.00;15.00;
53658;PMS5003;41524;35.624;139.698;2023-04-24T08:40:14;15.00;13.00;
53658;PMS5003;41524;35.624;139.698;2023-04-24T08:45:14;12.00;11.00;
53658;PMS5003;41524;35.624;139.698;2023-04-24T08:50:15;12.00;10.00;
53658;PMS5003;41524;35.624;139.698;2023-04-24T08:55:09;13.00;12.00;
53658;PMS5003;41524;35.624;139.698;2023-04-24T09:00:14;16.00;14.00;
53658;PMS5003;41524;35.624;139.698;2023-04-24T09:05:10;19.00;16.00;
53658;PMS5003;41524;35.624;139.698;2023-04-24T09:10:09;14.00;14.00;
53658;PMS5003;41524;35.624;139.698;2023-04-24T09:15:15;16.00;16.00;
53658;PMS5003;41524;35.624;139.698;2023-04-24T09:20:10;16.00;15.00;
53658;PMS5003;41524;35.624;139.698;2023-04-24T09:25:09;16.00;14.00;
53658;PMS5003;41524;35.624;139.698;2023-04-24T09:30:10;14.00;13.00;
53658;PMS5003;41524;35.624;139.698;2023-04-24T09:35:10;14.00;12.00;
53658;PMS5003;41524;35.624;139.698;2023-04-24T09:40:12;11.00;10.00;
53658;PMS5003;41524;35.624;139.698;2023-04-24T09:45:11;12.00;11.00;
53658;PMS5003;41524;35.624;139.698;2023-04-24T09:50:10;13.00;12.00;
53658;PMS5003;41524;35.624;139.698;2023-04-24T09:55:15;16.00;15.00;
53658;PMS5003;41524;35.624;139.698;2023-04-24T10:00:10;20.00;17.00;
53658;PMS5003;41524;35.624;139.698;2023-04-24T10:05:09;18.00;15.00;
53658;PMS5003;41524;35.624;139.698;2023-04-24T10:10:14;14.00;11.00;
53658;PMS5003;41524;35.624;139.698;2023-04-24T10:15:15;15.00;12.00;
53658;PMS5003;41524;35.624;139.698;2023-04-24T10:20:11;17.00;17.00;
53658;PMS5003;41524;35.624;139.698;2023-04-24T10:25:09;15.00;13.00;
53658;PMS5003;41524;35.624;139.698;2023-04-24T10:30:14;14.00;14.00;
53658;PMS5003;41524;35.624;139.698;2023-04-24T10:35:09;13.00;11.00;
53658;PMS5003;41524;35.624;139.698;2023-04-24T10:40:10;13.00;13.00;
53658;PMS5003;41524;35.624;139.698;2023-04-24T10:45:17;14.00;14.00;
53658;PMS5003;41524;35.624;139.698;2023-04-24T10:50:15;19.00;16.00;
53658;PMS5003;41524;35.624;139.698;2023-04-24T10:55:12;11.00;11.00;
53658;PMS5003;41524;35.624;139.698;2023-04-24T11:00:20;19.00;18.00;
53658;PMS5003;41524;35.624;139.698;2023-04-24T11:05:15;14.00;14.00;
53658;PMS5003;41524;35.624;139.698;2023-04-24T11:10:25;13.00;11.00;
53658;PMS5003;41524;35.624;139.698;2023-04-24T11:15:13;10.00;10.00;
53658;PMS5003;41524;35.624;139.698;2023-04-24T11:20:11;19.00;16.00;
53658;PMS5003;41524;35.624;139.698;2023-04-24T11:25:14;18.00;17.00;
53658;PMS5003;41524;35.624;139.698;2023-04-24T11:30:16;15.00;13.00;
53658;PMS5003;41524;35.624;139.698;2023-04-24T11:35:15;17.00;16.00;
53658;PMS5003;41524;35.624;139.698;2023-04-24T11:40:15;23.00;20.00;
53658;PMS5003;41524;35.624;139.698;2023-04-24T11:45:10;22.00;18.00;
53658;PMS5003;41524;35.624;139.698;2023-04-24T11:50:10;15.00;13.00;
53658;PMS5003;41524;35.624;139.698;2023-04-24T11:55:12;18.00;16.00;
53658;PMS5003;41524;35.624;139.698;2023-04-24T12:00:14;17.00;13.00;
53658;PMS5003;41524;35.624;139.698;2023-04-24T12:05:12;15.00;15.00;
53658;PMS5003;41524;35.624;139.698;2023-04-24T12:10:14;17.00;17.00;
53658;PMS5003;41524;35.624;139.698;2023-04-24T12:15:20;14.00;14.00;
53658;PMS5003;41524;35.624;139.698;2023-04-24T12:20:12;16.00;14.00;
53658;PMS5003;41524;35.624;139.698;2023-04-24T12:25:10;18.00;18.00;
53658;PMS5003;41524;35.624;139.698;2023-04-24T12:30:10;13.00;13.00;
53658;PMS5003;41524;35.624;139.698;2023-04-24T12:35:09;18.00;13.00;
53658;PMS5003;41524;35.624;139.698;2023-04-24T12:40:09;14.00;13.00;
53658;PMS5003;41524;35.624;139.698;2023-04-24T12:45:11;16.00;13.00;
53658;PMS5003;41524;35.624;139.698;2023-04-24T12:50:11;21.00;20.00;
53658;PMS5003;41524;35.624;139.698;2023-04-24T12:55:09;15.00;15.00;
53658;PMS5003;41524;35.624;139.698;2023-04-24T13:00:15;15.00;15.00;
53658;PMS5003;41524;35.624;139.698;2023-04-24T13:05:10;19.00;19.00;
53658;PMS5003;41524;35.624;139.698;2023-04-24T13:10:10;17.00;14.00;
53658;PMS5003;41524;35.624;139.698;2023-04-24T13:15:09;23.00;21.00;
53658;PMS5003;41524;35.624;139.698;2023-04-24T13:20:09;17.00;15.00;
53658;PMS5003;41524;35.624;139.698;2023-04-24T13:25:09;20.00;15.00;
53658;PMS5003;41524;35.624;139.698;2023-04-24T13:30:20;20.00;20.00;
53658;PMS5003;41524;35.624;139.698;2023-04-24T13:35:14;15.00;14.00;
53658;PMS5003;41524;35.624;139.698;2023-04-24T13:40:11;16.00;16.00;
53658;PMS5003;41524;35.624;139.698;2023-04-24T13:45:09;18.00;16.00;
53658;PMS5003;41524;35.624;139.698;2023-04-24T13:50:15;17.00;16.00;
53658;PMS5003;41524;35.624;139.698;2023-04-24T13:55:09;19.00;18.00;
53658;PMS5003;41524;35.624;139.698;2023-04-24T14:00:09;17.00;16.00;
53658;PMS5003;41524;35.624;139.698;2023-04-24T14:05:21;14.00;13.00;
53658;PMS5003;41524;35.624;139.698;2023-04-24T14:10:11;15.00;14.00;
53658;PMS5003;41524;35.624;139.698;2023-04-24T14:15:15;20.00;19.00;
53658;PMS5003;41524;35.624;139.698;2023-04-24T14:20:15;19.00;16.00;
53658;PMS5003;41524;35.624;139.698;2023-04-24T14:25:09;15.00;15.00;
53658;PMS5003;41524;35.624;139.698;2023-04-24T14:30:14;14.00;14.00;
53658;PMS5003;41524;35.624;139.698;2023-04-24T14:35:14;19.00;18.00;
53658;PMS5003;41524;35.624;139.698;2023-04-24T14:40:09;15.00;14.00;
53658;PMS5003;41524;35.624;139.698;2023-04-24T14:45:09;15.00;15.00;
53658;PMS5003;41524;35.624;139.698;2023-04-24T14:50:09;24.00;21.00;
53658;PMS5003;41524;35.624;139.698;2023-04-24T14:55:14;20.00;17.00;
53658;PMS5003;41524;35.624;139.698;2023-04-24T15:00:14;19.00;15.00;
53658;PMS5003;41524;35.624;139.698;2023-04-24T15:05:10;15.00;15.00;
53658;PMS5003;41524;35.624;139.698;2023-04-24T15:10:11;14.00;14.00;
53658;PMS5003;41524;35.624;139.698;2023-04-24T15:15:10;15.00;15.00;
53658;PMS5003;41524;35.624;139.698;2023-04-24T15:20:10;15.00;12.00;
53658;PMS5003;41524;35.624;139.698;2023-04-24T15:25:14;16.00;14.00;
53658;PMS5003;41524;35.624;139.698;2023-04-24T15:30:24;19.00;17.00;
53658;PMS5003;41524;35.624;139.698;2023-04-24T15:35:11;16.00;15.00;
53658;PMS5003;41524;35.624;139.698;2023-04-24T15:40:18;17.00;17.00;
53658;PMS5003;41524;35.624;139.698;2023-04-24T15:45:12;18.00;16.00;
53658;PMS5003;41524;35.624;139.698;2023-04-24T15:50:09;16.00;16.00;
53658;PMS5003;41524;35.624;139.698;2023-04-24T15:55:10;21.00;17.00;
53658;PMS5003;41524;35.624;139.698;2023-04-24T16:00:15;17.00;14.00;
53658;PMS5003;41524;35.624;139.698;2023-04-24T16:05:09;14.00;14.00;
53658;PMS5003;41524;35.624;139.698;2023-04-24T16:10:15;14.00;13.00;
53658;PMS5003;41524;35.624;139.698;2023-04-24T16:15:14;12.00;12.00;
53658;PMS5003;41524;35.624;139.698;2023-04-24T16:20:10;16.00;16.00;
53658;PMS5003;41524;35.624;139.698;2023-04-24T16:25:20;16.00;15.00;
53658;PMS5003;41524;35.624;139.698;2023-04-24T16:30:10;15.00;15.00;
53658;PMS5003;41524;35.624;139.698;2023-04-24T16:35:09;14.00;13.00;
53658;PMS5003;41524;35.624;139.698;2023-04-24T16:40:11;20.00;17.00;
53658;PMS5003;41524;35.624;139.698;2023-04-24T16:45:10;18.00;15.00;
53658;PMS5003;41524;35.624;139.698;2023-04-24T16:50:13;16.00;14.00;
53658;PMS5003;41524;35.624;139.698;2023-04-24T16:55:09;16.00;14.00;
53658;PMS5003;41524;35.624;139.698;2023-04-24T17:00:10;15.00;14.00;
53658;PMS5003;41524;35.624;139.698;2023-04-24T17:05:15;11.00;11.00;
53658;PMS5003;41524;35.624;139.698;2023-04-24T17:10:08;15.00;15.00;
53658;PMS5003;41524;35.624;139.698;2023-04-24T17:15:09;18.00;17.00;
53658;PMS5003;41524;35.624;139.698;2023-04-24T17:20:10;17.00;16.00;
53658;PMS5003;41524;35.624;139.698;2023-04-24T17:25:09;17.00;13.00;
53658;PMS5003;41524;35.624;139.698;2023-04-24T17:30:15;16.00;15.00;
53658;PMS5003;41524;35.624;139.698;2023-04-24T17:35:09;19.00;18.00;
53658;PMS5003;41524;35.624;139.698;2023-04-24T17:40:10;20.00;19.00;
53658;PMS5003;41524;35.624;139.698;2023-04-24T17:45:09;21.00;20.00;
53658;PMS5003;41524;35.624;139.698;2023-04-24T17:50:09;17.00;16.00;
53658;PMS5003;41524;35.624;139.698;2023-04-24T17:55:09;18.00;13.00;
53658;PMS5003;41524;35.624;139.698;2023-04-24T18:00:15;18.00;17.00;
53658;PMS5003;41524;35.624;139.698;2023-04-24T18:05:10;15.00;15.00;
53658;PMS5003;41524;35.624;139.698;2023-04-24T18:10:10;20.00;18.00;
53658;PMS5003;41524;35.624;139.698;2023-04-24T18:15:09;19.00;18.00;
53658;PMS5003;41524;35.624;139.698;2023-04-24T18:20:09;18.00;18.00;
53658;PMS5003;41524;35.624;139.698;2023-04-24T18:25:09;18.00;18.00;
53658;PMS5003;41524;35.624;139.698;2023-04-24T18:30:09;22.00;20.00;
53658;PMS5003;41524;35.624;139.698;2023-04-24T18:35:09;28.00;26.00;
53658;PMS5003;41524;35.624;139.698;2023-04-24T18:40:09;17.00;17.00;
53658;PMS5003;41524;35.624;139.698;2023-04-24T18:45:10;19.00;19.00;
53658;PMS5003;41524;35.624;139.698;2023-04-24T18:50:09;20.00;18.00;
53658;PMS5003;41524;35.624;139.698;2023-04-24T18:55:09;20.00;17.00;
53658;PMS5003;41524;35.624;139.698;2023-04-24T19:00:17;28.00;27.00;
53658;PMS5003;41524;35.624;139.698;2023-04-24T19:05:09;25.00;24.00;
53658;PMS5003;41524;35.624;139.698;2023-04-24T19:10:09;18.00;17.00;
53658;PMS5003;41524;35.624;139.698;2023-04-24T19:15:10;23.00;19.00;
53658;PMS5003;41524;35.624;139.698;2023-04-24T19:20:10;23.00;23.00;
53658;PMS5003;41524;35.624;139.698;2023-04-24T19:25:09;23.00;21.00;
53658;PMS5003;41524;35.624;139.698;2023-04-24T19:30:14;21.00;20.00;
53658;PMS5003;41524;35.624;139.698;2023-04-24T19:35:09;21.00;20.00;
53658;PMS5003;41524;35.624;139.698;2023-04-24T19:40:09;20.00;19.00;
53658;PMS5003;41524;35.624;139.698;2023-04-24T19:45:10;25.00;21.00;
53658;PMS5003;41524;35.624;139.698;2023-04-24T19:50:14;23.00;21.00;
53658;PMS5003;41524;35.624;139.698;2023-04-24T19:55:09;28.00;28.00;
53658;PMS5003;41524;35.624;139.698;2023-04-24T20:00:38;20.00;19.00;
53658;PMS5003;41524;35.624;139.698;2023-04-24T20:05:11;19.00;18.00;
53658;PMS5003;41524;35.624;139.698;2023-04-24T20:10:13;31.00;29.00;
53658;PMS5003;41524;35.624;139.698;2023-04-24T20:15:10;26.00;25.00;
53658;PMS5003;41524;35.624;139.698;2023-04-24T20:20:09;28.00;28.00;
53658;PMS5003;41524;35.624;139.698;2023-04-24T20:25:09;23.00;23.00;
53658;PMS5003;41524;35.624;139.698;2023-04-24T20:30:14;29.00;27.00;
53658;PMS5003;41524;35.624;139.698;2023-04-24T20:35:10;25.00;22.00;
53658;PMS5003;41524;35.624;139.698;2023-04-24T20:40:14;29.00;24.00;
53658;PMS5003;41524;35.624;139.698;2023-04-24T20:45:10;28.00;27.00;
53658;PMS5003;41524;35.624;139.698;2023-04-24T20:50:14;28.00;28.00;
53658;PMS5003;41524;35.624;139.698;2023-04-24T20:55:17;31.00;29.00;
53658;PMS5003;41524;35.624;139.698;2023-04-24T21:00:10;35.00;32.00;
53658;PMS5003;41524;35.624;139.698;2023-04-24T21:05:14;29.00;24.00;
53658;PMS5003;41524;35.624;139.698;2023-04-24T21:10:09;26.00;24.00;
53658;PMS5003;41524;35.624;139.698;2023-04-24T21:15:16;28.00;27.00;
53658;PMS5003;41524;35.624;139.698;2023-04-24T21:20:10;25.00;25.00;
53658;PMS5003;41524;35.624;139.698;2023-04-24T21:25:18;30.00;26.00;
53658;PMS5003;41524;35.624;139.698;2023-04-24T21:30:09;32.00;31.00;
53658;PMS5003;41524;35.624;139.698;2023-04-24T21:35:09;31.00;30.00;
53658;PMS5003;41524;35.624;139.698;2023-04-24T21:40:08;27.00;26.00;
53658;PMS5003;41524;35.624;139.698;2023-04-24T21:45:15;26.00;24.00;
53658;PMS5003;41524;35.624;139.698;2023-04-24T21:50:10;26.00;26.00;
53658;PMS5003;41524;35.624;139.698;2023-04-24T21:55:09;32.00;29.00;
53658;PMS5003;41524;35.624;139.698;2023-04-24T22:00:14;32.00;31.00;
53658;PMS5003;41524;35.624;139.698;2023-04-24T22:05:10;36.00;32.00;
53658;PMS5003;41524;35.624;139.698;2023-04-24T22:10:15;28.00;24.00;
53658;PMS5003;41524;35.624;139.698;2023-04-24T22:15:14;28.00;28.00;
53658;PMS5003;41524;35.624;139.698;2023-04-24T22:20:09;25.00;25.00;
53658;PMS5003;41524;35.624;139.698;2023-04-24T22:25:14;29.00;26.00;
53658;PMS5003;41524;35.624;139.698;2023-04-24T22:30:11;31.00;27.00;
53658;PMS5003;41524;35.624;139.698;2023-04-24T22:35:09;35.00;31.00;
53658;PMS5003;41524;35.624;139.698;2023-04-24T22:40:09;31.00;24.00;
53658;PMS5003;41524;35.624;139.698;2023-04-24T22:45:10;29.00;27.00;
53658;PMS5003;41524;35.624;139.698;2023-04-24T22:50:09;23.00;22.00;
53658;PMS5003;41524;35.624;139.698;2023-04-24T22:55:11;29.00;29.00;
53658;PMS5003;41524;35.624;139.698;2023-04-24T23:00:14;79.00;72.00;
53658;PMS5003;41524;35.624;139.698;2023-04-24T23:05:09;26.00;21.00;
53658;PMS5003;41524;35.624;139.698;2023-04-24T23:10:09;23.00;22.00;
53658;PMS5003;41524;35.624;139.698;2023-04-24T23:15:14;29.00;28.00;
53658;PMS5003;41524;35.624;139.698;2023-04-24T23:20:15;26.00;24.00;
53658;PMS5003;41524;35.624;139.698;2023-04-24T23:25:14;31.00;27.00;
53658;PMS5003;41524;35.624;139.698;2023-04-24T23:30:14;28.00;27.00;
53658;PMS5003;41524;35.624;139.698;2023-04-24T23:35:15;23.00;22.00;
53658;PMS5003;41524;35.624;139.698;2023-04-24T23:40:09;28.00;26.00;
53658;PMS5003;41524;35.624;139.698;2023-04-24T23:45:14;35.00;33.00;
53658;PMS5003;41524;35.624;139.698;2023-04-24T23:50:09;26.00;22.00;
53658;PMS5003;41524;35.624;139.698;2023-04-24T23:55:16;27.00;27.00;
